Beech Creek, Arkansas
Current Conditions -  °F | °C
As of 10:35 PM on Saturday 22 Nov 2014 (Local Time) from KBQP Reporting Station
Clear Clear  
Wind Chill: 60°   Ceiling: Unl
Heat Index: 60°   Visibility: 10mi
Dew Point: 52°   Wind: 5mph
Humidity: 76%   Direction: 110°ESE
Pressure: 29.89"   Gusts: NA
Location:  33.1762°N, 91.7595°W
Report Text: KBQP 230435Z AUTO 11004KT 10SM CLR 16/11 A2989 RMK AO2 LTG DSNT SW T01550112
Loading
Personal Weather Stations






























Interactive Weather Map New forecast layout! Learn more

10-Day Weather Forecast

Advertisements
Track Severe Weather on mobile